sensor_id;sensor_type;location;lat;lon;timestamp;temperature;humidity
59148;DHT22;44930;52.878;6.168;2023-04-03T00:02:04;3.20;99.90
59148;DHT22;44930;52.878;6.168;2023-04-03T00:04:30;3.20;99.90
59148;DHT22;44930;52.878;6.168;2023-04-03T00:06:56;2.90;99.90
59148;DHT22;44930;52.878;6.168;2023-04-03T00:09:21;3.20;99.90
59148;DHT22;44930;52.878;6.168;2023-04-03T00:11:47;3.10;99.90
59148;DHT22;44930;52.878;6.168;2023-04-03T00:14:12;3.10;99.90
59148;DHT22;44930;52.878;6.168;2023-04-03T00:19:04;2.90;99.90
59148;DHT22;44930;52.878;6.168;2023-04-03T00:21:29;3.00;99.90
59148;DHT22;44930;52.878;6.168;2023-04-03T00:23:55;3.00;99.90
59148;DHT22;44930;52.878;6.168;2023-04-03T00:26:21;2.90;99.90
59148;DHT22;44930;52.878;6.168;2023-04-03T00:28:46;2.90;99.90
59148;DHT22;44930;52.878;6.168;2023-04-03T00:33:42;2.90;99.90
59148;DHT22;44930;52.878;6.168;2023-04-03T00:36:09;3.00;99.90
59148;DHT22;44930;52.878;6.168;2023-04-03T00:38:35;2.90;99.90
59148;DHT22;44930;52.878;6.168;2023-04-03T00:43:27;2.90;99.90
59148;DHT22;44930;52.878;6.168;2023-04-03T00:45:55;2.80;99.90
59148;DHT22;44930;52.878;6.168;2023-04-03T00:48:34;2.90;99.90
59148;DHT22;44930;52.878;6.168;2023-04-03T00:51:03;2.80;99.90
59148;DHT22;44930;52.878;6.168;2023-04-03T00:53:33;2.50;99.90
59148;DHT22;44930;52.878;6.168;2023-04-03T00:56:00;2.70;99.90
59148;DHT22;44930;52.878;6.168;2023-04-03T00:58:44;3.00;99.90
59148;DHT22;44930;52.878;6.168;2023-04-03T01:01:14;2.70;99.90
59148;DHT22;44930;52.878;6.168;2023-04-03T01:03:40;2.60;99.90
59148;DHT22;44930;52.878;6.168;2023-04-03T01:06:06;2.60;99.90
59148;DHT22;44930;52.878;6.168;2023-04-03T01:08:31;2.60;99.90
59148;DHT22;44930;52.878;6.168;2023-04-03T01:10:57;2.60;99.90
59148;DHT22;44930;52.878;6.168;2023-04-03T01:13:30;2.60;99.90
59148;DHT22;44930;52.878;6.168;2023-04-03T01:15:56;2.50;99.90
59148;DHT22;44930;52.878;6.168;2023-04-03T01:18:24;2.20;99.90
59148;DHT22;44930;52.878;6.168;2023-04-03T01:23:24;2.50;99.90
59148;DHT22;44930;52.878;6.168;2023-04-03T01:25:55;2.30;99.90
59148;DHT22;44930;52.878;6.168;2023-04-03T01:28:30;2.40;99.90
59148;DHT22;44930;52.878;6.168;2023-04-03T01:33:28;2.30;99.90
59148;DHT22;44930;52.878;6.168;2023-04-03T01:35:53;2.30;99.90
59148;DHT22;44930;52.878;6.168;2023-04-03T01:38:19;2.40;99.90
59148;DHT22;44930;52.878;6.168;2023-04-03T01:40:45;2.30;99.90
59148;DHT22;44930;52.878;6.168;2023-04-03T01:43:11;2.20;99.90
59148;DHT22;44930;52.878;6.168;2023-04-03T01:45:37;2.30;99.90
59148;DHT22;44930;52.878;6.168;2023-04-03T01:50:29;2.00;99.90
59148;DHT22;44930;52.878;6.168;2023-04-03T01:52:54;2.10;99.90
59148;DHT22;44930;52.878;6.168;2023-04-03T01:55:20;2.10;99.90
59148;DHT22;44930;52.878;6.168;2023-04-03T01:57:45;2.00;99.90
59148;DHT22;44930;52.878;6.168;2023-04-03T02:00:11;2.10;99.90
59148;DHT22;44930;52.878;6.168;2023-04-03T02:02:37;2.10;99.90
59148;DHT22;44930;52.878;6.168;2023-04-03T02:05:03;2.00;99.90
59148;DHT22;44930;52.878;6.168;2023-04-03T02:07:28;2.00;99.90
59148;DHT22;44930;52.878;6.168;2023-04-03T02:12:20;1.90;99.90
59148;DHT22;44930;52.878;6.168;2023-04-03T02:14:45;1.90;99.90
59148;DHT22;44930;52.878;6.168;2023-04-03T02:17:11;1.80;99.90
59148;DHT22;44930;52.878;6.168;2023-04-03T02:19:36;1.90;99.90
59148;DHT22;44930;52.878;6.168;2023-04-03T02:22:03;1.90;99.90
59148;DHT22;44930;52.878;6.168;2023-04-03T02:24:29;1.80;99.90
59148;DHT22;44930;52.878;6.168;2023-04-03T02:26:54;1.80;99.90
59148;DHT22;44930;52.878;6.168;2023-04-03T02:29:20;1.80;99.90
59148;DHT22;44930;52.878;6.168;2023-04-03T02:31:46;1.70;99.90
59148;DHT22;44930;52.878;6.168;2023-04-03T02:34:11;1.70;99.90
59148;DHT22;44930;52.878;6.168;2023-04-03T02:36:37;1.70;99.90
59148;DHT22;44930;52.878;6.168;2023-04-03T02:39:03;1.70;99.90
59148;DHT22;44930;52.878;6.168;2023-04-03T02:44:05;1.60;99.90
59148;DHT22;44930;52.878;6.168;2023-04-03T02:46:31;1.60;99.90
59148;DHT22;44930;52.878;6.168;2023-04-03T02:51:23;1.50;99.90
59148;DHT22;44930;52.878;6.168;2023-04-03T02:53:49;1.60;99.90
59148;DHT22;44930;52.878;6.168;2023-04-03T02:56:16;1.50;99.90
59148;DHT22;44930;52.878;6.168;2023-04-03T02:58:42;1.50;99.90
59148;DHT22;44930;52.878;6.168;2023-04-03T03:03:34;1.50;99.90
59148;DHT22;44930;52.878;6.168;2023-04-03T03:06:05;1.70;99.90
59148;DHT22;44930;52.878;6.168;2023-04-03T03:08:31;1.40;99.90
59148;DHT22;44930;52.878;6.168;2023-04-03T03:13:23;1.40;99.90
59148;DHT22;44930;52.878;6.168;2023-04-03T03:18:14;1.40;99.90
59148;DHT22;44930;52.878;6.168;2023-04-03T03:20:40;1.40;99.90
59148;DHT22;44930;52.878;6.168;2023-04-03T03:23:06;1.40;99.90
59148;DHT22;44930;52.878;6.168;2023-04-03T03:25:32;1.40;99.90
59148;DHT22;44930;52.878;6.168;2023-04-03T03:27:57;1.40;99.90
59148;DHT22;44930;52.878;6.168;2023-04-03T03:30:23;1.30;99.90
59148;DHT22;44930;52.878;6.168;2023-04-03T03:35:15;1.40;99.90
59148;DHT22;44930;52.878;6.168;2023-04-03T03:37:40;1.30;99.90
59148;DHT22;44930;52.878;6.168;2023-04-03T03:40:06;1.40;99.90
59148;DHT22;44930;52.878;6.168;2023-04-03T03:42:32;1.30;99.90
59148;DHT22;44930;52.878;6.168;2023-04-03T03:44:58;1.20;99.90
59148;DHT22;44930;52.878;6.168;2023-04-03T03:47:23;1.20;99.90
59148;DHT22;44930;52.878;6.168;2023-04-03T03:52:15;1.10;99.90
59148;DHT22;44930;52.878;6.168;2023-04-03T03:59:32;1.10;99.90
59148;DHT22;44930;52.878;6.168;2023-04-03T04:06:50;1.00;99.90
59148;DHT22;44930;52.878;6.168;2023-04-03T04:11:41;0.90;99.90
59148;DHT22;44930;52.878;6.168;2023-04-03T04:14:07;0.80;99.90
59148;DHT22;44930;52.878;6.168;2023-04-03T04:16:33;0.70;99.90
59148;DHT22;44930;52.878;6.168;2023-04-03T04:18:58;0.70;99.90
59148;DHT22;44930;52.878;6.168;2023-04-03T04:21:24;0.70;99.90
59148;DHT22;44930;52.878;6.168;2023-04-03T04:23:49;0.60;99.90
59148;DHT22;44930;52.878;6.168;2023-04-03T04:26:15;0.40;99.90
59148;DHT22;44930;52.878;6.168;2023-04-03T04:33:32;0.30;99.90
59148;DHT22;44930;52.878;6.168;2023-04-03T04:38:24;0.30;99.90
59148;DHT22;44930;52.878;6.168;2023-04-03T04:43:16;0.20;99.90
59148;DHT22;44930;52.878;6.168;2023-04-03T04:45:42;0.20;99.90
59148;DHT22;44930;52.878;6.168;2023-04-03T04:50:34;0.20;99.90
59148;DHT22;44930;52.878;6.168;2023-04-03T04:55:25;0.30;99.90
59148;DHT22;44930;52.878;6.168;2023-04-03T04:57:51;0.30;99.90
59148;DHT22;44930;52.878;6.168;2023-04-03T05:10:02;0.20;99.90
59148;DHT22;44930;52.878;6.168;2023-04-03T05:12:29;0.10;99.90
59148;DHT22;44930;52.878;6.168;2023-04-03T05:14:54;0.20;99.90
59148;DHT22;44930;52.878;6.168;2023-04-03T05:17:20;0.10;99.90
59148;DHT22;44930;52.878;6.168;2023-04-03T05:19:46;0.10;99.90
59148;DHT22;44930;52.878;6.168;2023-04-03T05:24:37;0.30;99.90
59148;DHT22;44930;52.878;6.168;2023-04-03T05:27:03;0.30;99.90
59148;DHT22;44930;52.878;6.168;2023-04-03T05:29:29;0.30;99.90
59148;DHT22;44930;52.878;6.168;2023-04-03T05:34:20;0.50;99.90
59148;DHT22;44930;52.878;6.168;2023-04-03T05:36:46;0.50;99.90
59148;DHT22;44930;52.878;6.168;2023-04-03T05:39:11;0.50;99.90
59148;DHT22;44930;52.878;6.168;2023-04-03T05:41:37;0.60;99.90
59148;DHT22;44930;52.878;6.168;2023-04-03T05:46:28;0.60;99.90
59148;DHT22;44930;52.878;6.168;2023-04-03T05:48:55;0.60;99.90
59148;DHT22;44930;52.878;6.168;2023-04-03T05:51:27;0.60;99.90
59148;DHT22;44930;52.878;6.168;2023-04-03T05:53:59;0.80;99.90
59148;DHT22;44930;52.878;6.168;2023-04-03T05:58:52;0.90;99.90
59148;DHT22;44930;52.878;6.168;2023-04-03T06:01:17;0.90;99.90
59148;DHT22;44930;52.878;6.168;2023-04-03T06:06:13;1.10;99.90
59148;DHT22;44930;52.878;6.168;2023-04-03T06:08:39;1.10;99.90
59148;DHT22;44930;52.878;6.168;2023-04-03T06:13:31;1.20;99.90
59148;DHT22;44930;52.878;6.168;2023-04-03T06:15:57;1.20;99.90
59148;DHT22;44930;52.878;6.168;2023-04-03T06:18:22;1.40;99.90
59148;DHT22;44930;52.878;6.168;2023-04-03T06:20:48;1.40;99.90
59148;DHT22;44930;52.878;6.168;2023-04-03T06:23:14;1.50;99.90
59148;DHT22;44930;52.878;6.168;2023-04-03T06:28:06;1.60;99.90
59148;DHT22;44930;52.878;6.168;2023-04-03T06:30:34;1.80;99.90
59148;DHT22;44930;52.878;6.168;2023-04-03T06:33:00;1.80;99.90
59148;DHT22;44930;52.878;6.168;2023-04-03T06:35:26;2.00;99.90
59148;DHT22;44930;52.878;6.168;2023-04-03T06:37:53;2.00;99.90
59148;DHT22;44930;52.878;6.168;2023-04-03T06:40:21;2.20;99.90
59148;DHT22;44930;52.878;6.168;2023-04-03T06:42:48;2.20;99.90
59148;DHT22;44930;52.878;6.168;2023-04-03T06:45:13;2.30;99.90
59148;DHT22;44930;52.878;6.168;2023-04-03T06:47:39;2.40;99.90
59148;DHT22;44930;52.878;6.168;2023-04-03T06:50:05;2.40;99.90
59148;DHT22;44930;52.878;6.168;2023-04-03T06:52:31;2.40;99.90
59148;DHT22;44930;52.878;6.168;2023-04-03T06:59:51;2.60;99.90
59148;DHT22;44930;52.878;6.168;2023-04-03T07:02:17;2.60;99.90
59148;DHT22;44930;52.878;6.168;2023-04-03T07:04:42;2.60;99.90
59148;DHT22;44930;52.878;6.168;2023-04-03T07:07:08;2.60;99.90
59148;DHT22;44930;52.878;6.168;2023-04-03T07:09:34;2.80;99.90
59148;DHT22;44930;52.878;6.168;2023-04-03T07:11:59;2.70;99.90
59148;DHT22;44930;52.878;6.168;2023-04-03T07:16:51;2.80;99.90
59148;DHT22;44930;52.878;6.168;2023-04-03T07:19:17;2.90;99.90
59148;DHT22;44930;52.878;6.168;2023-04-03T07:21:44;2.90;99.90
59148;DHT22;44930;52.878;6.168;2023-04-03T07:24:10;3.00;99.90
59148;DHT22;44930;52.878;6.168;2023-04-03T07:26:36;3.00;99.90
59148;DHT22;44930;52.878;6.168;2023-04-03T07:29:02;3.10;99.90
59148;DHT22;44930;52.878;6.168;2023-04-03T07:36:21;3.30;99.90
59148;DHT22;44930;52.878;6.168;2023-04-03T07:38:47;3.30;99.90
59148;DHT22;44930;52.878;6.168;2023-04-03T07:41:18;3.20;99.90
59148;DHT22;44930;52.878;6.168;2023-04-03T07:43:45;3.30;99.90
59148;DHT22;44930;52.878;6.168;2023-04-03T07:46:12;3.40;99.90
59148;DHT22;44930;52.878;6.168;2023-04-03T07:48:38;3.60;99.90
59148;DHT22;44930;52.878;6.168;2023-04-03T07:51:04;3.50;99.90
59148;DHT22;44930;52.878;6.168;2023-04-03T07:53:31;3.70;99.90
59148;DHT22;44930;52.878;6.168;2023-04-03T07:55:58;4.00;99.90
59148;DHT22;44930;52.878;6.168;2023-04-03T07:58:24;4.00;99.90
59148;DHT22;44930;52.878;6.168;2023-04-03T08:03:16;4.20;99.90
59148;DHT22;44930;52.878;6.168;2023-04-03T08:05:43;4.40;99.90
59148;DHT22;44930;52.878;6.168;2023-04-03T08:08:11;4.30;99.90
59148;DHT22;44930;52.878;6.168;2023-04-03T08:10:37;4.40;99.90
59148;DHT22;44930;52.878;6.168;2023-04-03T08:13:04;4.70;99.90
59148;DHT22;44930;52.878;6.168;2023-04-03T08:15:30;4.70;99.90
59148;DHT22;44930;52.878;6.168;2023-04-03T08:17:57;4.70;99.90
59148;DHT22;44930;52.878;6.168;2023-04-03T08:20:23;4.90;99.90
59148;DHT22;44930;52.878;6.168;2023-04-03T08:22:48;4.90;99.90
59148;DHT22;44930;52.878;6.168;2023-04-03T08:25:14;5.00;99.90
59148;DHT22;44930;52.878;6.168;2023-04-03T08:27:40;5.20;99.90
59148;DHT22;44930;52.878;6.168;2023-04-03T08:30:06;5.30;99.90
59148;DHT22;44930;52.878;6.168;2023-04-03T08:35:00;5.60;99.90
59148;DHT22;44930;52.878;6.168;2023-04-03T08:39:51;5.90;99.90
59148;DHT22;44930;52.878;6.168;2023-04-03T08:42:38;6.30;99.90
59148;DHT22;44930;52.878;6.168;2023-04-03T08:48:01;6.30;99.90
59148;DHT22;44930;52.878;6.168;2023-04-03T08:50:37;5.70;99.90
59148;DHT22;44930;52.878;6.168;2023-04-03T08:53:06;6.20;99.90
59148;DHT22;44930;52.878;6.168;2023-04-03T08:55:47;6.40;99.90
59148;DHT22;44930;52.878;6.168;2023-04-03T08:58:19;6.50;99.90
59148;DHT22;44930;52.878;6.168;2023-04-03T09:00:51;6.60;99.90
59148;DHT22;44930;52.878;6.168;2023-04-03T09:03:19;6.60;99.90
59148;DHT22;44930;52.878;6.168;2023-04-03T09:14:00;6.90;99.90
59148;DHT22;44930;52.878;6.168;2023-04-03T09:16:46;6.90;99.90
59148;DHT22;44930;52.878;6.168;2023-04-03T09:19:38;6.70;99.90
59148;DHT22;44930;52.878;6.168;2023-04-03T09:22:26;6.80;99.90
59148;DHT22;44930;52.878;6.168;2023-04-03T09:25:13;7.50;99.90
59148;DHT22;44930;52.878;6.168;2023-04-03T09:27:39;7.20;99.90
59148;DHT22;44930;52.878;6.168;2023-04-03T09:30:08;7.30;99.90
59148;DHT22;44930;52.878;6.168;2023-04-03T09:32:37;7.40;99.90
59148;DHT22;44930;52.878;6.168;2023-04-03T09:37:54;7.50;99.90
59148;DHT22;44930;52.878;6.168;2023-04-03T09:42:52;7.60;99.90
59148;DHT22;44930;52.878;6.168;2023-04-03T09:53:31;8.00;99.90
59148;DHT22;44930;52.878;6.168;2023-04-03T09:55:58;7.70;99.90
59148;DHT22;44930;52.878;6.168;2023-04-03T09:58:30;7.80;99.90
59148;DHT22;44930;52.878;6.168;2023-04-03T10:01:00;8.00;99.90
59148;DHT22;44930;52.878;6.168;2023-04-03T10:03:28;8.00;99.90
59148;DHT22;44930;52.878;6.168;2023-04-03T10:05:54;8.20;99.90
59148;DHT22;44930;52.878;6.168;2023-04-03T10:08:24;8.10;99.90
59148;DHT22;44930;52.878;6.168;2023-04-03T10:13:32;8.30;99.90
59148;DHT22;44930;52.878;6.168;2023-04-03T10:16:05;8.40;99.90
59148;DHT22;44930;52.878;6.168;2023-04-03T10:21:15;8.60;99.90
59148;DHT22;44930;52.878;6.168;2023-04-03T10:26:53;8.40;99.90
59148;DHT22;44930;52.878;6.168;2023-04-03T10:29:46;8.20;99.90
59148;DHT22;44930;52.878;6.168;2023-04-03T10:37:50;8.80;99.80
59148;DHT22;44930;52.878;6.168;2023-04-03T10:40:35;8.50;98.50
59148;DHT22;44930;52.878;6.168;2023-04-03T10:43:08;9.10;99.30
59148;DHT22;44930;52.878;6.168;2023-04-03T10:48:39;9.30;99.90
59148;DHT22;44930;52.878;6.168;2023-04-03T10:54:08;9.50;98.10
59148;DHT22;44930;52.878;6.168;2023-04-03T10:59:33;9.20;97.20
59148;DHT22;44930;52.878;6.168;2023-04-03T11:02:07;9.20;98.60
59148;DHT22;44930;52.878;6.168;2023-04-03T11:04:36;9.40;98.00
59148;DHT22;44930;52.878;6.168;2023-04-03T11:07:17;9.40;99.00
59148;DHT22;44930;52.878;6.168;2023-04-03T11:12:30;9.50;96.70
59148;DHT22;44930;52.878;6.168;2023-04-03T11:14:58;9.60;97.90
59148;DHT22;44930;52.878;6.168;2023-04-03T11:17:33;9.70;97.50
59148;DHT22;44930;52.878;6.168;2023-04-03T11:23:11;9.80;98.30
59148;DHT22;44930;52.878;6.168;2023-04-03T11:25:42;9.80;98.20
59148;DHT22;44930;52.878;6.168;2023-04-03T11:28:13;9.60;99.40
59148;DHT22;44930;52.878;6.168;2023-04-03T11:31:07;10.00;98.10
59148;DHT22;44930;52.878;6.168;2023-04-03T11:36:12;10.10;97.20
59148;DHT22;44930;52.878;6.168;2023-04-03T11:38:45;10.10;98.30
59148;DHT22;44930;52.878;6.168;2023-04-03T11:41:13;10.20;97.50
59148;DHT22;44930;52.878;6.168;2023-04-03T11:43:56;10.60;96.70
59148;DHT22;44930;52.878;6.168;2023-04-03T11:46:22;10.10;98.10
59148;DHT22;44930;52.878;6.168;2023-04-03T11:52:12;10.30;96.60
59148;DHT22;44930;52.878;6.168;2023-04-03T11:57:44;10.60;95.80
59148;DHT22;44930;52.878;6.168;2023-04-03T12:05:48;10.00;95.50
59148;DHT22;44930;52.878;6.168;2023-04-03T12:08:28;9.90;95.80
59148;DHT22;44930;52.878;6.168;2023-04-03T12:16:26;9.90;97.40
59148;DHT22;44930;52.878;6.168;2023-04-03T12:29:25;10.30;95.20
59148;DHT22;44930;52.878;6.168;2023-04-03T12:32:15;10.50;95.70
59148;DHT22;44930;52.878;6.168;2023-04-03T12:48:27;10.90;96.40
59148;DHT22;44930;52.878;6.168;2023-04-03T12:50:54;10.90;96.70
59148;DHT22;44930;52.878;6.168;2023-04-03T12:53:27;11.00;96.10
59148;DHT22;44930;52.878;6.168;2023-04-03T12:55:56;11.00;95.20
59148;DHT22;44930;52.878;6.168;2023-04-03T12:58:27;11.10;96.80
59148;DHT22;44930;52.878;6.168;2023-04-03T13:01:09;11.20;96.70
59148;DHT22;44930;52.878;6.168;2023-04-03T13:03:39;10.80;95.50
59148;DHT22;44930;52.878;6.168;2023-04-03T13:06:05;11.30;95.10
59148;DHT22;44930;52.878;6.168;2023-04-03T13:08:31;11.30;95.20
59148;DHT22;44930;52.878;6.168;2023-04-03T13:11:04;11.20;94.90
59148;DHT22;44930;52.878;6.168;2023-04-03T13:13:31;10.80;94.00
59148;DHT22;44930;52.878;6.168;2023-04-03T13:15:59;11.10;94.60
59148;DHT22;44930;52.878;6.168;2023-04-03T13:18:30;11.10;96.20
59148;DHT22;44930;52.878;6.168;2023-04-03T13:21:01;11.00;94.90
59148;DHT22;44930;52.878;6.168;2023-04-03T13:23:29;11.10;94.70
59148;DHT22;44930;52.878;6.168;2023-04-03T13:25:55;11.00;97.10
59148;DHT22;44930;52.878;6.168;2023-04-03T13:28:24;11.00;94.60
59148;DHT22;44930;52.878;6.168;2023-04-03T13:31:18;11.30;96.10
59148;DHT22;44930;52.878;6.168;2023-04-03T13:33:57;11.30;93.50
59148;DHT22;44930;52.878;6.168;2023-04-03T13:36:25;11.30;94.20
59148;DHT22;44930;52.878;6.168;2023-04-03T13:39:29;11.50;94.90
59148;DHT22;44930;52.878;6.168;2023-04-03T13:42:24;11.30;94.30
59148;DHT22;44930;52.878;6.168;2023-04-03T13:44:48;11.00;93.80
59148;DHT22;44930;52.878;6.168;2023-04-03T13:47:18;11.40;94.90
59148;DHT22;44930;52.878;6.168;2023-04-03T13:50:00;11.50;94.70
59148;DHT22;44930;52.878;6.168;2023-04-03T13:54:57;11.60;96.10
59148;DHT22;44930;52.878;6.168;2023-04-03T13:57:24;11.80;94.60
59148;DHT22;44930;52.878;6.168;2023-04-03T13:59:49;11.90;95.00
59148;DHT22;44930;52.878;6.168;2023-04-03T14:02:23;11.90;94.20
59148;DHT22;44930;52.878;6.168;2023-04-03T14:04:56;11.90;93.60
59148;DHT22;44930;52.878;6.168;2023-04-03T14:07:24;11.70;95.30
59148;DHT22;44930;52.878;6.168;2023-04-03T14:12:37;11.90;92.50
59148;DHT22;44930;52.878;6.168;2023-04-03T14:15:28;11.60;93.50
59148;DHT22;44930;52.878;6.168;2023-04-03T14:17:54;11.30;91.70
59148;DHT22;44930;52.878;6.168;2023-04-03T14:20:23;11.40;93.10
59148;DHT22;44930;52.878;6.168;2023-04-03T14:22:50;11.20;93.80
59148;DHT22;44930;52.878;6.168;2023-04-03T14:25:17;11.30;93.20
59148;DHT22;44930;52.878;6.168;2023-04-03T14:27:45;11.30;93.40
59148;DHT22;44930;52.878;6.168;2023-04-03T14:32:51;11.40;93.30
59148;DHT22;44930;52.878;6.168;2023-04-03T14:35:18;11.20;91.30
59148;DHT22;44930;52.878;6.168;2023-04-03T14:37:45;11.60;93.20
59148;DHT22;44930;52.878;6.168;2023-04-03T14:40:17;11.40;93.40
59148;DHT22;44930;52.878;6.168;2023-04-03T14:42:43;11.50;92.60
59148;DHT22;44930;52.878;6.168;2023-04-03T14:45:11;11.40;92.60
59148;DHT22;44930;52.878;6.168;2023-04-03T14:47:43;11.50;93.60
59148;DHT22;44930;52.878;6.168;2023-04-03T14:50:15;11.50;92.00
59148;DHT22;44930;52.878;6.168;2023-04-03T14:52:41;11.40;92.80
59148;DHT22;44930;52.878;6.168;2023-04-03T14:55:07;11.10;93.40
59148;DHT22;44930;52.878;6.168;2023-04-03T14:57:34;11.30;92.90
59148;DHT22;44930;52.878;6.168;2023-04-03T14:59:59;11.30;93.50
59148;DHT22;44930;52.878;6.168;2023-04-03T15:02:30;11.40;93.40
59148;DHT22;44930;52.878;6.168;2023-04-03T15:04:56;11.70;93.40
59148;DHT22;44930;52.878;6.168;2023-04-03T15:09:49;11.30;92.40
59148;DHT22;44930;52.878;6.168;2023-04-03T15:12:15;11.70;93.90
59148;DHT22;44930;52.878;6.168;2023-04-03T15:14:41;11.80;93.10
59148;DHT22;44930;52.878;6.168;2023-04-03T15:17:13;12.10;93.10
59148;DHT22;44930;52.878;6.168;2023-04-03T15:22:08;11.90;92.20
59148;DHT22;44930;52.878;6.168;2023-04-03T15:24:34;12.30;91.90
59148;DHT22;44930;52.878;6.168;2023-04-03T15:27:00;12.40;91.20
59148;DHT22;44930;52.878;6.168;2023-04-03T15:29:26;13.00;91.60
59148;DHT22;44930;52.878;6.168;2023-04-03T15:31:52;13.00;92.50
59148;DHT22;44930;52.878;6.168;2023-04-03T15:34:19;13.50;91.20
59148;DHT22;44930;52.878;6.168;2023-04-03T15:36:46;13.90;90.40
59148;DHT22;44930;52.878;6.168;2023-04-03T15:39:12;13.80;87.10
59148;DHT22;44930;52.878;6.168;2023-04-03T15:41:37;13.90;87.50
59148;DHT22;44930;52.878;6.168;2023-04-03T15:44:03;14.10;87.50
59148;DHT22;44930;52.878;6.168;2023-04-03T15:46:28;14.00;88.00
59148;DHT22;44930;52.878;6.168;2023-04-03T15:48:54;14.10;86.00
59148;DHT22;44930;52.878;6.168;2023-04-03T15:51:20;14.10;83.90
59148;DHT22;44930;52.878;6.168;2023-04-03T15:53:46;14.30;84.70
59148;DHT22;44930;52.878;6.168;2023-04-03T15:56:11;14.10;87.80
59148;DHT22;44930;52.878;6.168;2023-04-03T15:58:37;14.20;85.30
59148;DHT22;44930;52.878;6.168;2023-04-03T16:01:03;13.60;85.80
59148;DHT22;44930;52.878;6.168;2023-04-03T16:03:29;13.10;88.70
59148;DHT22;44930;52.878;6.168;2023-04-03T16:05:55;12.70;88.60
59148;DHT22;44930;52.878;6.168;2023-04-03T16:10:47;12.00;89.40
59148;DHT22;44930;52.878;6.168;2023-04-03T16:13:13;11.80;87.20
59148;DHT22;44930;52.878;6.168;2023-04-03T16:18:05;11.40;90.10
59148;DHT22;44930;52.878;6.168;2023-04-03T16:20:31;11.30;90.30
59148;DHT22;44930;52.878;6.168;2023-04-03T16:22:58;11.10;90.50
59148;DHT22;44930;52.878;6.168;2023-04-03T16:25:25;11.00;90.80
59148;DHT22;44930;52.878;6.168;2023-04-03T16:27:50;10.90;91.10
59148;DHT22;44930;52.878;6.168;2023-04-03T16:30:16;10.60;91.00
59148;DHT22;44930;52.878;6.168;2023-04-03T16:32:42;10.40;91.40
59148;DHT22;44930;52.878;6.168;2023-04-03T16:35:08;10.40;91.40
59148;DHT22;44930;52.878;6.168;2023-04-03T16:37:36;10.40;91.90
59148;DHT22;44930;52.878;6.168;2023-04-03T16:40:03;10.30;91.90
59148;DHT22;44930;52.878;6.168;2023-04-03T16:42:30;10.30;91.60
59148;DHT22;44930;52.878;6.168;2023-04-03T16:44:56;10.40;91.80
59148;DHT22;44930;52.878;6.168;2023-04-03T16:47:21;10.80;91.70
59148;DHT22;44930;52.878;6.168;2023-04-03T16:52:13;11.50;91.10
59148;DHT22;44930;52.878;6.168;2023-04-03T16:59:31;11.30;90.60
59148;DHT22;44930;52.878;6.168;2023-04-03T17:01:57;11.20;91.00
59148;DHT22;44930;52.878;6.168;2023-04-03T17:04:22;11.50;91.00
59148;DHT22;44930;52.878;6.168;2023-04-03T17:06:48;11.10;90.20
59148;DHT22;44930;52.878;6.168;2023-04-03T17:09:14;11.00;90.90
59148;DHT22;44930;52.878;6.168;2023-04-03T17:11:40;10.90;91.10
59148;DHT22;44930;52.878;6.168;2023-04-03T17:14:05;10.60;91.20
59148;DHT22;44930;52.878;6.168;2023-04-03T17:16:33;10.30;91.50
59148;DHT22;44930;52.878;6.168;2023-04-03T17:18:59;10.00;92.10
59148;DHT22;44930;52.878;6.168;2023-04-03T17:21:25;9.80;92.40
59148;DHT22;44930;52.878;6.168;2023-04-03T17:23:58;9.80;92.70
59148;DHT22;44930;52.878;6.168;2023-04-03T17:26:25;9.50;93.00
59148;DHT22;44930;52.878;6.168;2023-04-03T17:28:52;9.40;93.40
59148;DHT22;44930;52.878;6.168;2023-04-03T17:31:17;9.60;93.50
59148;DHT22;44930;52.878;6.168;2023-04-03T17:33:43;9.50;93.30
59148;DHT22;44930;52.878;6.168;2023-04-03T17:36:09;9.40;93.00
59148;DHT22;44930;52.878;6.168;2023-04-03T17:38:35;9.40;92.80
59148;DHT22;44930;52.878;6.168;2023-04-03T17:41:03;9.20;92.90
59148;DHT22;44930;52.878;6.168;2023-04-03T17:43:29;9.40;93.20
59148;DHT22;44930;52.878;6.168;2023-04-03T17:46:03;9.80;92.90
59148;DHT22;44930;52.878;6.168;2023-04-03T17:48:30;9.60;93.20
59148;DHT22;44930;52.878;6.168;2023-04-03T17:50:56;9.70;93.30
59148;DHT22;44930;52.878;6.168;2023-04-03T17:53:22;9.50;93.40
59148;DHT22;44930;52.878;6.168;2023-04-03T17:58:14;9.00;92.90
59148;DHT22;44930;52.878;6.168;2023-04-03T18:00:40;9.10;93.10
59148;DHT22;44930;52.878;6.168;2023-04-03T18:03:06;8.80;93.40
59148;DHT22;44930;52.878;6.168;2023-04-03T18:05:31;8.50;94.70
59148;DHT22;44930;52.878;6.168;2023-04-03T18:07:58;8.30;94.40
59148;DHT22;44930;52.878;6.168;2023-04-03T18:10:24;7.90;95.90
59148;DHT22;44930;52.878;6.168;2023-04-03T18:12:53;7.80;94.90
59148;DHT22;44930;52.878;6.168;2023-04-03T18:15:19;7.60;95.80
59148;DHT22;44930;52.878;6.168;2023-04-03T18:17:45;7.40;94.80
59148;DHT22;44930;52.878;6.168;2023-04-03T18:20:12;7.60;95.00
59148;DHT22;44930;52.878;6.168;2023-04-03T18:22:39;7.40;96.00
59148;DHT22;44930;52.878;6.168;2023-04-03T18:25:06;6.80;95.90
59148;DHT22;44930;52.878;6.168;2023-04-03T18:27:32;7.00;96.40
59148;DHT22;44930;52.878;6.168;2023-04-03T18:30:06;7.30;96.10
59148;DHT22;44930;52.878;6.168;2023-04-03T18:32:33;7.10;95.70
59148;DHT22;44930;52.878;6.168;2023-04-03T18:34:59;7.00;95.90
59148;DHT22;44930;52.878;6.168;2023-04-03T18:37:25;6.90;96.60
59148;DHT22;44930;52.878;6.168;2023-04-03T18:39:51;6.90;96.70
59148;DHT22;44930;52.878;6.168;2023-04-03T18:42:19;6.60;97.10
59148;DHT22;44930;52.878;6.168;2023-04-03T18:44:48;6.40;97.80
59148;DHT22;44930;52.878;6.168;2023-04-03T18:49:42;6.80;97.80
59148;DHT22;44930;52.878;6.168;2023-04-03T18:52:09;6.20;98.70
59148;DHT22;44930;52.878;6.168;2023-04-03T18:54:35;6.30;99.20
59148;DHT22;44930;52.878;6.168;2023-04-03T18:57:02;6.20;99.80
59148;DHT22;44930;52.878;6.168;2023-04-03T18:59:27;6.20;99.90
59148;DHT22;44930;52.878;6.168;2023-04-03T19:01:54;6.10;99.90
59148;DHT22;44930;52.878;6.168;2023-04-03T19:04:20;6.00;99.90
59148;DHT22;44930;52.878;6.168;2023-04-03T19:06:46;5.90;99.90
59148;DHT22;44930;52.878;6.168;2023-04-03T19:09:12;6.00;99.90
59148;DHT22;44930;52.878;6.168;2023-04-03T19:11:37;5.90;99.90
59148;DHT22;44930;52.878;6.168;2023-04-03T19:14:03;6.10;99.90
59148;DHT22;44930;52.878;6.168;2023-04-03T19:16:31;5.70;99.90
59148;DHT22;44930;52.878;6.168;2023-04-03T19:18:58;5.70;99.90
59148;DHT22;44930;52.878;6.168;2023-04-03T19:21:24;5.60;99.90
59148;DHT22;44930;52.878;6.168;2023-04-03T19:23:49;5.60;99.90
59148;DHT22;44930;52.878;6.168;2023-04-03T19:26:15;5.50;99.90
59148;DHT22;44930;52.878;6.168;2023-04-03T19:28:40;5.40;99.90
59148;DHT22;44930;52.878;6.168;2023-04-03T19:31:14;5.40;99.90
59148;DHT22;44930;52.878;6.168;2023-04-03T19:33:41;5.40;99.90
59148;DHT22;44930;52.878;6.168;2023-04-03T19:36:08;5.40;99.90
59148;DHT22;44930;52.878;6.168;2023-04-03T19:38:34;5.20;99.90
59148;DHT22;44930;52.878;6.168;2023-04-03T19:41:00;5.20;99.90
59148;DHT22;44930;52.878;6.168;2023-04-03T19:43:27;5.20;99.90